Time;durP1;ratioP1;P1;durP2;ratioP2;P2;SDS_P1;SDS_P2;PMS_P1;PMS_P2;Temp;Humidity;BMP_temperature;BMP_pressure;BME280_temperature;BME280_humidity;BME280_pressure;Samples;Min_cycle;Max_cycle;Signal;HPM_P1;HPM_P2
2023/01/27 00:00:58;;;;;;;2.67;2.10;;;;;;;;;;5032029;28;20182;-84
2023/01/27 00:03:24;;;;;;;3.10;1.90;;;;;;;;;;5031300;28;20456;-85
2023/01/27 00:05:50;;;;;;;4.60;2.33;;;;;;;;;;5026252;28;20342;-83
2023/01/27 00:08:17;;;;;;;6.40;2.40;;;;;;;;;;5041347;28;20186;-83
2023/01/27 00:10:43;;;;;;;3.97;2.33;;;;;;;;;;5028614;28;20185;-84
2023/01/27 00:13:26;;;;;;;4.07;1.93;;;;;;;;;;5022578;28;20265;-84
2023/01/27 00:15:53;;;;;;;5.30;2.20;;;;;;;;;;5029559;28;20256;-83
2023/01/27 00:18:19;;;;;;;3.90;1.77;;;;;;;;;;5030269;28;20691;-83
2023/01/27 00:26:16;;;;;;;3.93;2.20;;;;;;;;;;5028319;28;20220;-83
2023/01/27 00:28:43;;;;;;;3.73;2.20;;;;;;;;;;5045506;28;20178;-85
2023/01/27 00:34:00;;;;;;;3.93;2.17;;;;;;;;;;5032132;28;20681;-83
2023/01/27 00:36:27;;;;;;;3.57;2.03;;;;;;;;;;5029528;28;20264;-84
2023/01/27 00:38:53;;;;;;;4.37;1.90;;;;;;;;;;5029608;28;20174;-84
2023/01/27 00:41:19;;;;;;;7.37;1.90;;;;;;;;;;5028336;28;20484;-84
2023/01/27 00:43:46;;;;;;;4.60;2.10;;;;;;;;;;5029222;28;20248;-84
2023/01/27 00:46:12;;;;;;;3.10;2.03;;;;;;;;;;5031147;28;20174;-84
2023/01/27 00:48:38;;;;;;;4.67;2.07;;;;;;;;;;5029299;28;20182;-85
2023/01/27 00:51:04;;;;;;;2.90;2.00;;;;;;;;;;5031939;28;20166;-84
2023/01/27 00:53:31;;;;;;;2.10;1.90;;;;;;;;;;5030091;28;20344;-84
2023/01/27 00:55:57;;;;;;;3.50;1.97;;;;;;;;;;5030705;28;20193;-84
2023/01/27 00:58:24;;;;;;;4.27;2.37;;;;;;;;;;5033930;28;20212;-82
2023/01/27 01:00:52;;;;;;;2.70;2.17;;;;;;;;;;5033845;28;20209;-83
2023/01/27 01:03:18;;;;;;;4.13;2.20;;;;;;;;;;5034999;28;20217;-84
2023/01/27 01:05:44;;;;;;;4.33;2.30;;;;;;;;;;5032450;28;20211;-84
2023/01/27 01:08:10;;;;;;;2.67;1.93;;;;;;;;;;5032599;28;20847;-84
2023/01/27 01:10:39;;;;;;;3.33;2.37;;;;;;;;;;5026600;28;20490;-83
2023/01/27 01:13:10;;;;;;;3.87;2.33;;;;;;;;;;5021603;28;20764;-83
2023/01/27 01:15:40;;;;;;;4.70;2.73;;;;;;;;;;5050171;28;20188;-84
2023/01/27 01:18:06;;;;;;;5.97;2.70;;;;;;;;;;5042067;28;20610;-84
2023/01/27 01:20:43;;;;;;;3.97;2.90;;;;;;;;;;5020839;28;20475;-83
2023/01/27 01:23:09;;;;;;;4.37;2.27;;;;;;;;;;5025338;28;20197;-84
2023/01/27 01:25:35;;;;;;;4.17;2.53;;;;;;;;;;5031522;28;20228;-83
2023/01/27 01:28:02;;;;;;;7.37;2.50;;;;;;;;;;5031670;28;20182;-85
2023/01/27 01:30:29;;;;;;;2.63;2.40;;;;;;;;;;5037160;28;20185;-85
2023/01/27 01:32:55;;;;;;;5.23;2.63;;;;;;;;;;5052882;28;20197;-84
2023/01/27 01:35:21;;;;;;;6.50;4.20;;;;;;;;;;5035805;28;20158;-84
2023/01/27 01:37:48;;;;;;;5.87;2.57;;;;;;;;;;5033471;28;20218;-83
2023/01/27 01:40:14;;;;;;;5.27;3.27;;;;;;;;;;5031085;28;20243;-83
2023/01/27 01:42:50;;;;;;;3.97;3.33;;;;;;;;;;5032236;28;20637;-85
2023/01/27 01:45:40;;;;;;;4.27;3.10;;;;;;;;;;5032140;28;20174;-85
2023/01/27 01:48:15;;;;;;;4.93;3.13;;;;;;;;;;5032283;28;20699;-83
2023/01/27 01:50:42;;;;;;;7.30;3.90;;;;;;;;;;5044120;28;20489;-83
2023/01/27 01:53:09;;;;;;;3.60;3.30;;;;;;;;;;5044910;28;20217;-84
2023/01/27 01:55:36;;;;;;;6.83;3.80;;;;;;;;;;5026612;28;20201;-84
2023/01/27 01:58:02;;;;;;;6.47;3.87;;;;;;;;;;5030443;28;20186;-84
2023/01/27 02:00:28;;;;;;;5.07;3.90;;;;;;;;;;5034000;28;20185;-88
2023/01/27 02:02:54;;;;;;;6.20;4.03;;;;;;;;;;5035621;28;20190;-83
2023/01/27 02:05:26;;;;;;;7.27;4.73;;;;;;;;;;5034087;28;20193;-85
2023/01/27 02:08:01;;;;;;;7.13;4.80;;;;;;;;;;5032544;28;20162;-83
2023/01/27 02:10:27;;;;;;;9.10;4.80;;;;;;;;;;5030590;28;20182;-86
2023/01/27 02:12:53;;;;;;;6.77;5.03;;;;;;;;;;5032239;28;20178;-85
2023/01/27 02:15:20;;;;;;;7.27;4.97;;;;;;;;;;5031691;28;20273;-83
2023/01/27 02:17:47;;;;;;;4.70;4.23;;;;;;;;;;5032042;28;20281;-83
2023/01/27 02:20:17;;;;;;;6.93;5.10;;;;;;;;;;5032057;28;20235;-85
2023/01/27 02:22:57;;;;;;;8.23;5.07;;;;;;;;;;5030098;28;20197;-84
2023/01/27 02:25:36;;;;;;;7.70;5.83;;;;;;;;;;5031988;28;20197;-84
2023/01/27 02:28:03;;;;;;;10.23;7.10;;;;;;;;;;5045274;28;20181;-83
2023/01/27 02:30:29;;;;;;;6.97;5.00;;;;;;;;;;5030285;28;20613;-84
2023/01/27 02:32:55;;;;;;;6.80;5.00;;;;;;;;;;5032934;28;20552;-84
2023/01/27 02:35:35;;;;;;;6.50;5.20;;;;;;;;;;5032531;28;20657;-84
2023/01/27 02:38:01;;;;;;;7.80;5.07;;;;;;;;;;5032117;28;20695;-84
2023/01/27 02:40:29;;;;;;;7.47;5.53;;;;;;;;;;5047648;28;20637;-85
2023/01/27 02:42:56;;;;;;;10.17;6.57;;;;;;;;;;5030119;28;20185;-83
2023/01/27 02:45:22;;;;;;;8.27;6.47;;;;;;;;;;5031707;28;20181;-85
2023/01/27 02:47:48;;;;;;;8.90;7.47;;;;;;;;;;5030564;28;20704;-85
2023/01/27 02:50:14;;;;;;;8.13;6.17;;;;;;;;;;5031202;28;20182;-85
2023/01/27 02:52:47;;;;;;;9.30;7.50;;;;;;;;;;5031490;28;20225;-81
2023/01/27 02:55:13;;;;;;;9.70;6.50;;;;;;;;;;5021020;28;20572;-83
2023/01/27 02:57:39;;;;;;;8.97;7.07;;;;;;;;;;5029539;28;20205;-84
2023/01/27 03:00:05;;;;;;;7.87;6.03;;;;;;;;;;5031180;28;20201;-84
2023/01/27 03:02:31;;;;;;;12.57;7.40;;;;;;;;;;5031008;28;20351;-83
2023/01/27 03:04:57;;;;;;;8.83;6.60;;;;;;;;;;5031678;28;20205;-83
2023/01/27 03:07:23;;;;;;;10.60;7.33;;;;;;;;;;5032198;28;21041;-84
2023/01/27 03:09:49;;;;;;;10.03;7.17;;;;;;;;;;5031036;28;20185;-83
2023/01/27 03:12:18;;;;;;;8.03;7.07;;;;;;;;;;5030778;28;20186;-83
2023/01/27 03:20:14;;;;;;;11.47;6.80;;;;;;;;;;5032948;28;20240;-85
2023/01/27 03:22:40;;;;;;;9.47;6.67;;;;;;;;;;5030953;28;20522;-84
2023/01/27 03:25:07;;;;;;;10.77;7.03;;;;;;;;;;5031457;28;20459;-83
2023/01/27 03:27:33;;;;;;;9.20;5.97;;;;;;;;;;5031012;28;20686;-84
2023/01/27 03:29:59;;;;;;;10.53;6.27;;;;;;;;;;5032668;28;20185;-85
2023/01/27 03:32:26;;;;;;;7.93;5.07;;;;;;;;;;5031380;28;20527;-83
2023/01/27 03:34:56;;;;;;;7.23;5.87;;;;;;;;;;5031862;28;20184;-83
2023/01/27 03:48:23;;;;;;;7.67;6.43;;;;;;;;;;5033194;28;20181;-83
2023/01/27 03:50:52;;;;;;;6.93;5.50;;;;;;;;;;5034537;28;20157;-86
2023/01/27 03:53:19;;;;;;;8.67;6.13;;;;;;;;;;5035017;28;20225;-85
2023/01/27 03:55:48;;;;;;;9.77;5.73;;;;;;;;;;5028180;28;20255;-86
2023/01/27 03:58:17;;;;;;;7.90;5.70;;;;;;;;;;5044747;28;20750;-85
2023/01/27 04:00:43;;;;;;;8.63;5.53;;;;;;;;;;5033179;28;20619;-85
2023/01/27 04:08:43;;;;;;;6.87;6.13;;;;;;;;;;5026109;28;20188;-85
2023/01/27 04:13:53;;;;;;;6.77;5.73;;;;;;;;;;5031201;28;20247;-83
2023/01/27 04:16:27;;;;;;;7.47;6.23;;;;;;;;;;5031871;28;20174;-85
2023/01/27 04:18:54;;;;;;;7.40;5.87;;;;;;;;;;5030025;28;20177;-84
2023/01/27 04:21:20;;;;;;;7.03;5.13;;;;;;;;;;5033055;28;20185;-85
2023/01/27 04:23:46;;;;;;;6.73;5.53;;;;;;;;;;5031509;28;20210;-85
2023/01/27 04:26:12;;;;;;;8.40;5.40;;;;;;;;;;5032002;28;20169;-83
2023/01/27 04:28:38;;;;;;;5.80;5.23;;;;;;;;;;5031146;28;20260;-83
2023/01/27 04:31:04;;;;;;;8.80;6.43;;;;;;;;;;5034549;28;20228;-85
2023/01/27 04:33:30;;;;;;;6.90;5.13;;;;;;;;;;5035534;28;20181;-85
2023/01/27 04:35:56;;;;;;;6.37;5.37;;;;;;;;;;5033300;28;20261;-83
2023/01/27 04:38:22;;;;;;;5.97;5.20;;;;;;;;;;5032384;28;20186;-85
2023/01/27 04:40:48;;;;;;;6.37;5.47;;;;;;;;;;5034623;28;20181;-84
2023/01/27 04:43:14;;;;;;;8.53;6.07;;;;;;;;;;5036096;28;20273;-85
2023/01/27 04:45:40;;;;;;;6.67;5.40;;;;;;;;;;5036190;28;20696;-85
2023/01/27 04:48:06;;;;;;;5.70;4.83;;;;;;;;;;5035419;28;20613;-84
2023/01/27 04:50:33;;;;;;;7.63;5.47;;;;;;;;;;5035315;28;20185;-84
2023/01/27 04:52:59;;;;;;;7.10;5.70;;;;;;;;;;5033636;28;20217;-85
2023/01/27 04:55:26;;;;;;;8.90;5.83;;;;;;;;;;5033919;28;20337;-85
2023/01/27 04:57:52;;;;;;;7.77;6.13;;;;;;;;;;5033732;28;20278;-83
2023/01/27 05:00:18;;;;;;;6.93;5.70;;;;;;;;;;5035442;28;20552;-83
2023/01/27 05:02:44;;;;;;;8.13;6.37;;;;;;;;;;5034539;28;20713;-83
2023/01/27 05:05:10;;;;;;;8.37;6.33;;;;;;;;;;5034480;28;20197;-84
2023/01/27 05:07:37;;;;;;;6.27;5.47;;;;;;;;;;5034947;28;20586;-84
2023/01/27 05:10:04;;;;;;;8.10;6.60;;;;;;;;;;5037025;28;20189;-83
2023/01/27 05:12:30;;;;;;;8.07;5.93;;;;;;;;;;5035378;28;20205;-83
2023/01/27 05:14:56;;;;;;;7.43;5.93;;;;;;;;;;5035084;28;20189;-85
2023/01/27 05:17:22;;;;;;;8.43;6.30;;;;;;;;;;5033909;28;20182;-79
2023/01/27 05:19:48;;;;;;;8.67;6.23;;;;;;;;;;5034327;28;20193;-84
2023/01/27 05:22:14;;;;;;;8.63;6.40;;;;;;;;;;5032191;28;20177;-83
2023/01/27 05:24:40;;;;;;;8.10;5.93;;;;;;;;;;5030703;28;20229;-84
2023/01/27 05:27:06;;;;;;;9.37;6.40;;;;;;;;;;5017889;28;20201;-87
2023/01/27 05:29:32;;;;;;;7.93;6.17;;;;;;;;;;5041759;28;20186;-82
2023/01/27 05:31:58;;;;;;;7.23;6.27;;;;;;;;;;5039022;28;20170;-85
2023/01/27 05:34:24;;;;;;;9.47;6.27;;;;;;;;;;5039679;28;20182;-83
2023/01/27 05:36:50;;;;;;;8.33;6.70;;;;;;;;;;5038544;28;20224;-82
2023/01/27 05:39:16;;;;;;;10.63;6.93;;;;;;;;;;5031955;28;20186;-84
2023/01/27 05:41:42;;;;;;;9.80;7.37;;;;;;;;;;5035462;28;20181;-82
2023/01/27 05:44:10;;;;;;;9.63;6.77;;;;;;;;;;5032610;28;20260;-82
2023/01/27 05:46:37;;;;;;;9.83;6.20;;;;;;;;;;5033166;28;20177;-83
2023/01/27 05:49:04;;;;;;;8.17;6.80;;;;;;;;;;5032375;28;20192;-83
2023/01/27 05:51:31;;;;;;;8.73;6.60;;;;;;;;;;5033616;28;20267;-83
2023/01/27 05:53:57;;;;;;;9.43;6.67;;;;;;;;;;5049523;28;20206;-83
2023/01/27 05:56:25;;;;;;;8.93;6.20;;;;;;;;;;5045870;28;20186;-84
2023/01/27 05:58:53;;;;;;;8.60;6.00;;;;;;;;;;5048497;28;20266;-86
2023/01/27 06:01:20;;;;;;;7.63;6.50;;;;;;;;;;5034123;28;20248;-85
2023/01/27 06:03:46;;;;;;;8.23;6.57;;;;;;;;;;5031623;28;20204;-85
2023/01/27 06:06:13;;;;;;;7.97;5.97;;;;;;;;;;5032537;28;20775;-88
2023/01/27 06:08:40;;;;;;;7.00;5.93;;;;;;;;;;5032974;28;20174;-83
2023/01/27 06:11:06;;;;;;;7.33;5.90;;;;;;;;;;5048087;28;20574;-84
2023/01/27 06:13:37;;;;;;;9.43;6.83;;;;;;;;;;5032559;28;20360;-84
2023/01/27 06:16:04;;;;;;;7.93;6.37;;;;;;;;;;5030915;28;20412;-85
2023/01/27 06:18:30;;;;;;;8.13;6.43;;;;;;;;;;5033115;28;20273;-85
2023/01/27 06:21:00;;;;;;;8.13;6.43;;;;;;;;;;5031473;28;20937;-83
2023/01/27 06:23:26;;;;;;;7.40;6.03;;;;;;;;;;5032400;28;20213;-83
2023/01/27 06:25:52;;;;;;;8.27;5.77;;;;;;;;;;5031854;28;20755;-87
2023/01/27 06:28:19;;;;;;;8.53;6.27;;;;;;;;;;5033809;28;20186;-82
2023/01/27 06:30:45;;;;;;;8.03;6.40;;;;;;;;;;5032881;28;20275;-78
2023/01/27 06:33:11;;;;;;;7.83;5.97;;;;;;;;;;5034255;28;20265;-79
2023/01/27 06:35:38;;;;;;;11.70;7.23;;;;;;;;;;5034776;28;20608;-83
2023/01/27 06:38:05;;;;;;;11.03;6.80;;;;;;;;;;5035019;28;20474;-85
2023/01/27 06:40:32;;;;;;;8.97;6.63;;;;;;;;;;5030570;28;20158;-85
2023/01/27 06:42:58;;;;;;;6.97;6.03;;;;;;;;;;5031800;28;20166;-84
2023/01/27 06:45:24;;;;;;;6.97;5.80;;;;;;;;;;5034284;28;20190;-83
2023/01/27 06:47:55;;;;;;;8.03;6.40;;;;;;;;;;5034028;28;20193;-83
2023/01/27 06:50:21;;;;;;;7.37;5.77;;;;;;;;;;5035272;28;20177;-82
2023/01/27 06:52:47;;;;;;;7.40;6.13;;;;;;;;;;5035219;28;20404;-85
2023/01/27 06:55:13;;;;;;;9.50;5.90;;;;;;;;;;5031288;28;20371;-83
2023/01/27 06:57:40;;;;;;;7.40;5.93;;;;;;;;;;5033968;28;20166;-82
2023/01/27 07:00:07;;;;;;;6.90;5.90;;;;;;;;;;5032902;28;20586;-82
2023/01/27 07:02:33;;;;;;;8.03;5.70;;;;;;;;;;5030686;28;20633;-83
2023/01/27 07:04:59;;;;;;;8.07;6.77;;;;;;;;;;5033187;28;20656;-83
2023/01/27 07:07:25;;;;;;;6.43;5.57;;;;;;;;;;5030918;28;20177;-84
2023/01/27 07:09:51;;;;;;;6.07;5.07;;;;;;;;;;5028603;28;20178;-83
2023/01/27 07:12:17;;;;;;;9.03;5.50;;;;;;;;;;5029534;28;20188;-86
2023/01/27 07:14:43;;;;;;;6.43;5.73;;;;;;;;;;5033045;28;20542;-84
2023/01/27 07:17:09;;;;;;;6.13;5.50;;;;;;;;;;5032784;28;20178;-84
2023/01/27 07:19:35;;;;;;;6.60;5.70;;;;;;;;;;5032823;28;20955;-83
2023/01/27 07:22:01;;;;;;;6.07;5.47;;;;;;;;;;5038499;28;20617;-85
2023/01/27 07:24:27;;;;;;;6.20;5.47;;;;;;;;;;5035205;28;20212;-86
2023/01/27 07:26:53;;;;;;;7.40;5.70;;;;;;;;;;5034906;28;20178;-82
2023/01/27 07:29:19;;;;;;;7.17;5.23;;;;;;;;;;5032961;28;20185;-84
2023/01/27 07:31:46;;;;;;;6.37;5.50;;;;;;;;;;5031424;28;20185;-86
2023/01/27 07:34:12;;;;;;;5.63;4.87;;;;;;;;;;5031642;28;20515;-84
2023/01/27 07:36:38;;;;;;;5.40;4.63;;;;;;;;;;5032509;28;20174;-85
2023/01/27 07:39:04;;;;;;;6.50;5.20;;;;;;;;;;5031486;28;20189;-89
2023/01/27 07:41:30;;;;;;;5.50;4.73;;;;;;;;;;5027808;28;20621;-86
2023/01/27 07:43:56;;;;;;;6.47;5.40;;;;;;;;;;5031648;28;20205;-85
2023/01/27 07:46:22;;;;;;;6.00;5.10;;;;;;;;;;5031101;28;20503;-84
2023/01/27 07:48:48;;;;;;;5.67;5.07;;;;;;;;;;5034149;28;20174;-86
2023/01/27 07:51:14;;;;;;;5.07;4.27;;;;;;;;;;5032739;28;20409;-86
2023/01/27 07:53:41;;;;;;;7.63;5.80;;;;;;;;;;5034046;28;20455;-85
2023/01/27 07:56:10;;;;;;;5.20;4.70;;;;;;;;;;5029526;28;20190;-82
2023/01/27 07:58:37;;;;;;;5.30;4.70;;;;;;;;;;5031556;28;20174;-84
2023/01/27 08:01:07;;;;;;;5.70;4.50;;;;;;;;;;5033053;28;20213;-86
2023/01/27 08:03:33;;;;;;;5.37;4.80;;;;;;;;;;5046483;28;20205;-86
2023/01/27 08:06:03;;;;;;;5.83;5.23;;;;;;;;;;5036703;28;20177;-85
2023/01/27 08:08:29;;;;;;;5.77;5.00;;;;;;;;;;5033211;28;20286;-84
2023/01/27 08:10:58;;;;;;;5.30;4.80;;;;;;;;;;5036479;28;20964;-85
2023/01/27 08:13:24;;;;;;;5.80;5.20;;;;;;;;;;5038008;28;20170;-84
2023/01/27 08:15:55;;;;;;;6.63;5.40;;;;;;;;;;5037366;28;20537;-83
2023/01/27 08:18:21;;;;;;;5.80;5.00;;;;;;;;;;5052471;28;20527;-82
2023/01/27 08:20:47;;;;;;;5.47;4.60;;;;;;;;;;5053376;28;20641;-82
2023/01/27 08:23:13;;;;;;;6.10;5.37;;;;;;;;;;5038466;28;20182;-83
2023/01/27 08:25:39;;;;;;;5.30;4.57;;;;;;;;;;5035747;28;20154;-85
2023/01/27 08:28:05;;;;;;;5.67;4.73;;;;;;;;;;5036971;28;20176;-83
2023/01/27 08:30:31;;;;;;;5.17;4.20;;;;;;;;;;5037818;28;20220;-86
2023/01/27 08:32:57;;;;;;;5.43;4.83;;;;;;;;;;5052147;28;20212;-84
2023/01/27 08:35:23;;;;;;;5.70;5.17;;;;;;;;;;5052210;28;20190;-82
2023/01/27 08:37:50;;;;;;;4.90;4.40;;;;;;;;;;5035755;28;20181;-84
2023/01/27 08:40:17;;;;;;;6.60;4.73;;;;;;;;;;5035355;28;20201;-85
2023/01/27 08:42:43;;;;;;;5.60;5.00;;;;;;;;;;5035358;28;20630;-84
2023/01/27 08:45:09;;;;;;;5.50;5.00;;;;;;;;;;5036022;28;20695;-86
2023/01/27 08:47:35;;;;;;;5.60;5.10;;;;;;;;;;5035812;28;20193;-84
2023/01/27 08:50:01;;;;;;;5.97;5.07;;;;;;;;;;5035401;28;20685;-83
2023/01/27 08:52:29;;;;;;;6.00;5.33;;;;;;;;;;5036124;28;20580;-84
2023/01/27 08:54:55;;;;;;;5.60;5.00;;;;;;;;;;5035448;28;20328;-82
2023/01/27 08:57:21;;;;;;;6.27;5.43;;;;;;;;;;5034527;28;20206;-82
2023/01/27 08:59:47;;;;;;;5.20;4.50;;;;;;;;;;5032252;28;20255;-83
2023/01/27 09:02:13;;;;;;;5.57;4.50;;;;;;;;;;5029517;28;20431;-85
2023/01/27 09:04:42;;;;;;;6.00;5.27;;;;;;;;;;5029855;28;20214;-85
2023/01/27 09:07:08;;;;;;;5.53;4.97;;;;;;;;;;5032028;28;20481;-84
2023/01/27 09:09:35;;;;;;;5.77;5.13;;;;;;;;;;5038706;28;20510;-87
2023/01/27 09:12:01;;;;;;;5.53;4.93;;;;;;;;;;5036602;28;20183;-87
2023/01/27 09:14:27;;;;;;;5.23;4.73;;;;;;;;;;5035567;28;20265;-79
2023/01/27 09:16:53;;;;;;;5.43;4.93;;;;;;;;;;5037714;28;20201;-84
2023/01/27 09:19:19;;;;;;;5.77;5.17;;;;;;;;;;5031321;28;20158;-83
2023/01/27 09:21:45;;;;;;;6.27;5.67;;;;;;;;;;5037213;28;20443;-84
2023/01/27 09:24:14;;;;;;;5.50;4.97;;;;;;;;;;5035415;28;20468;-83
2023/01/27 09:26:40;;;;;;;4.93;4.47;;;;;;;;;;5036734;28;20555;-86
2023/01/27 09:29:06;;;;;;;6.13;5.20;;;;;;;;;;5051329;28;20170;-84
2023/01/27 09:31:32;;;;;;;6.93;5.33;;;;;;;;;;5049706;28;20440;-82
2023/01/27 09:33:58;;;;;;;6.83;5.83;;;;;;;;;;5030627;28;20198;-82
2023/01/27 09:36:25;;;;;;;5.87;5.33;;;;;;;;;;5035753;28;20189;-84
2023/01/27 09:38:58;;;;;;;6.77;5.67;;;;;;;;;;5034321;28;20696;-83
2023/01/27 09:41:30;;;;;;;6.63;5.93;;;;;;;;;;5030610;28;20182;-84
2023/01/27 09:43:56;;;;;;;6.33;5.67;;;;;;;;;;5034203;28;21518;-84
2023/01/27 09:46:23;;;;;;;6.47;5.83;;;;;;;;;;5034696;28;20170;-82
2023/01/27 09:48:55;;;;;;;6.73;5.23;;;;;;;;;;5034511;28;20269;-83
2023/01/27 09:51:37;;;;;;;6.67;5.53;;;;;;;;;;5034771;28;20601;-83
2023/01/27 09:54:15;;;;;;;5.17;4.73;;;;;;;;;;5033873;28;20220;-84
2023/01/27 09:56:50;;;;;;;6.10;5.50;;;;;;;;;;5034288;28;20177;-83
2023/01/27 09:59:27;;;;;;;7.83;5.80;;;;;;;;;;5037278;28;20194;-83
2023/01/27 10:01:53;;;;;;;6.03;5.50;;;;;;;;;;5037416;28;20189;-82
2023/01/27 10:04:28;;;;;;;5.87;5.27;;;;;;;;;;5036228;28;20202;-84
2023/01/27 10:07:15;;;;;;;5.87;5.33;;;;;;;;;;5036510;28;20176;-82
2023/01/27 10:10:01;;;;;;;6.60;5.80;;;;;;;;;;5035629;28;20174;-84
2023/01/27 10:12:39;;;;;;;5.40;4.90;;;;;;;;;;5029381;28;20169;-83
2023/01/27 10:15:11;;;;;;;5.60;5.10;;;;;;;;;;5033346;28;20308;-84
2023/01/27 10:17:56;;;;;;;5.43;4.87;;;;;;;;;;5034573;28;20314;-83
2023/01/27 10:20:22;;;;;;;5.93;5.33;;;;;;;;;;5028993;28;20182;-82
2023/01/27 10:22:54;;;;;;;5.20;4.57;;;;;;;;;;5034105;28;20580;-83
2023/01/27 10:25:29;;;;;;;6.37;5.67;;;;;;;;;;5024993;28;20194;-81
2023/01/27 10:28:01;;;;;;;6.27;5.67;;;;;;;;;;5029012;28;20181;-84
2023/01/27 10:30:32;;;;;;;6.23;5.40;;;;;;;;;;5023229;28;20218;-81
2023/01/27 10:33:11;;;;;;;6.20;5.60;;;;;;;;;;5030745;28;20173;-83
2023/01/27 10:35:37;;;;;;;5.93;5.33;;;;;;;;;;5018626;28;20171;-85
2023/01/27 10:38:09;;;;;;;5.43;4.93;;;;;;;;;;5050448;28;20243;-84
2023/01/27 10:40:38;;;;;;;5.53;5.03;;;;;;;;;;5031730;28;20224;-87
2023/01/27 10:43:04;;;;;;;5.40;4.80;;;;;;;;;;5031445;28;20186;-81
2023/01/27 10:45:38;;;;;;;5.73;5.10;;;;;;;;;;5028038;28;20205;-83
2023/01/27 10:48:10;;;;;;;5.60;5.10;;;;;;;;;;5031640;28;20169;-82
2023/01/27 10:50:50;;;;;;;5.70;4.83;;;;;;;;;;5033306;28;20170;-82
2023/01/27 10:53:28;;;;;;;6.60;5.83;;;;;;;;;;5030531;28;20312;-85
2023/01/27 10:55:56;;;;;;;6.67;5.33;;;;;;;;;;5032986;28;20182;-84
2023/01/27 10:58:36;;;;;;;6.00;5.40;;;;;;;;;;5034201;28;20177;-84
2023/01/27 11:01:05;;;;;;;6.47;5.73;;;;;;;;;;5032503;28;20684;-85
2023/01/27 11:03:51;;;;;;;5.97;5.37;;;;;;;;;;5028162;28;20641;-86
2023/01/27 11:06:23;;;;;;;6.20;5.37;;;;;;;;;;4992640;28;20206;-85
2023/01/27 11:08:51;;;;;;;5.60;5.03;;;;;;;;;;5032025;28;20264;-84
2023/01/27 11:14:16;;;;;;;5.60;5.10;;;;;;;;;;5030492;28;20674;-79
2023/01/27 11:16:45;;;;;;;5.10;4.60;;;;;;;;;;5034586;28;20268;-78
2023/01/27 11:19:16;;;;;;;5.83;4.83;;;;;;;;;;5031417;28;20224;-79
2023/01/27 11:21:42;;;;;;;5.70;5.20;;;;;;;;;;5031906;28;20216;-84
2023/01/27 11:24:15;;;;;;;5.87;5.27;;;;;;;;;;5032280;28;20190;-77
2023/01/27 11:26:48;;;;;;;6.37;5.23;;;;;;;;;;5033416;28;20259;-84
2023/01/27 11:29:33;;;;;;;6.07;5.27;;;;;;;;;;5032964;28;20163;-82
2023/01/27 11:32:18;;;;;;;6.07;5.47;;;;;;;;;;5032865;28;20252;-84
2023/01/27 11:35:03;;;;;;;6.17;5.57;;;;;;;;;;5026805;28;20197;-82
2023/01/27 11:37:37;;;;;;;6.17;5.53;;;;;;;;;;5033806;28;20174;-83
2023/01/27 11:40:04;;;;;;;6.83;6.00;;;;;;;;;;5024651;28;20170;-78
2023/01/27 11:42:31;;;;;;;6.37;5.63;;;;;;;;;;5032314;28;20182;-76
2023/01/27 11:44:57;;;;;;;6.37;5.70;;;;;;;;;;5048847;28;20746;-77
2023/01/27 11:47:26;;;;;;;7.17;6.20;;;;;;;;;;5032395;28;20652;-78
2023/01/27 11:49:53;;;;;;;6.50;5.67;;;;;;;;;;5033110;28;20181;-77
2023/01/27 11:52:20;;;;;;;5.97;5.23;;;;;;;;;;5025988;28;20213;-77
2023/01/27 11:55:00;;;;;;;6.50;5.90;;;;;;;;;;5032547;28;20670;-78
2023/01/27 11:57:27;;;;;;;7.03;5.83;;;;;;;;;;5026226;28;20185;-78
2023/01/27 12:00:19;;;;;;;7.13;6.17;;;;;;;;;;5034488;28;20193;-77
2023/01/27 12:02:53;;;;;;;5.90;5.30;;;;;;;;;;5022996;28;20217;-77
2023/01/27 12:05:24;;;;;;;6.23;5.63;;;;;;;;;;5031857;28;20201;-78
2023/01/27 12:07:53;;;;;;;6.27;5.67;;;;;;;;;;5033884;28;20190;-77
2023/01/27 12:10:26;;;;;;;5.80;5.10;;;;;;;;;;5031967;28;20162;-77
2023/01/27 12:12:53;;;;;;;6.73;5.80;;;;;;;;;;5025678;28;20254;-85
2023/01/27 12:15:19;;;;;;;5.50;5.00;;;;;;;;;;5030370;28;20205;-87
2023/01/27 12:17:47;;;;;;;6.00;5.40;;;;;;;;;;5032196;28;20190;-85
2023/01/27 12:20:32;;;;;;;5.37;4.87;;;;;;;;;;5030934;28;20524;-85
2023/01/27 12:23:03;;;;;;;5.33;4.70;;;;;;;;;;5026781;28;20723;-85
2023/01/27 12:25:31;;;;;;;4.97;4.47;;;;;;;;;;5046297;28;20225;-86
2023/01/27 12:27:59;;;;;;;6.57;5.03;;;;;;;;;;5024462;28;20188;-86
2023/01/27 12:30:46;;;;;;;5.60;5.07;;;;;;;;;;5032319;28;20231;-86
2023/01/27 12:33:14;;;;;;;5.27;4.70;;;;;;;;;;5026292;28;20178;-86
2023/01/27 12:35:40;;;;;;;5.37;4.87;;;;;;;;;;5028946;28;20183;-85
2023/01/27 12:38:16;;;;;;;6.00;5.37;;;;;;;;;;5032241;28;20262;-85
2023/01/27 12:40:44;;;;;;;4.53;4.13;;;;;;;;;;5047086;28;20239;-87
2023/01/27 12:43:19;;;;;;;4.33;3.93;;;;;;;;;;5030465;28;20645;-86
2023/01/27 12:46:01;;;;;;;4.30;3.90;;;;;;;;;;5038936;28;20197;-86
2023/01/27 12:48:29;;;;;;;4.37;3.90;;;;;;;;;;5024727;28;20243;-78
2023/01/27 12:50:56;;;;;;;4.53;4.13;;;;;;;;;;5042102;28;20550;-87
2023/01/27 12:53:26;;;;;;;4.57;4.07;;;;;;;;;;5036045;28;20326;-89
2023/01/27 12:56:10;;;;;;;3.97;3.57;;;;;;;;;;5038633;28;20194;-89
2023/01/27 12:58:48;;;;;;;4.00;3.57;;;;;;;;;;5030160;28;20220;-81
2023/01/27 13:01:29;;;;;;;4.43;4.03;;;;;;;;;;5029442;28;20174;-80
2023/01/27 13:03:58;;;;;;;3.27;2.97;;;;;;;;;;5048477;28;20223;-86
2023/01/27 13:06:46;;;;;;;3.53;3.23;;;;;;;;;;5025739;28;20190;-89
2023/01/27 13:09:21;;;;;;;3.17;2.47;;;;;;;;;;5049372;28;20184;-87
2023/01/27 13:11:47;;;;;;;3.23;2.93;;;;;;;;;;5025528;28;20662;-88
2023/01/27 13:14:16;;;;;;;3.57;3.00;;;;;;;;;;5037775;28;20170;-87
2023/01/27 13:16:49;;;;;;;3.73;3.30;;;;;;;;;;5033991;28;20185;-87
2023/01/27 13:19:16;;;;;;;3.17;2.87;;;;;;;;;;5033818;28;20305;-85
2023/01/27 13:21:43;;;;;;;3.07;2.83;;;;;;;;;;5034458;28;20239;-85
2023/01/27 13:24:14;;;;;;;2.83;2.60;;;;;;;;;;5033992;28;20201;-86
2023/01/27 13:26:41;;;;;;;3.17;2.60;;;;;;;;;;5033885;28;20626;-85
2023/01/27 13:29:10;;;;;;;4.30;3.33;;;;;;;;;;5028166;28;20213;-85
2023/01/27 13:31:36;;;;;;;2.73;2.53;;;;;;;;;;5024684;28;20200;-85
2023/01/27 13:34:05;;;;;;;3.37;3.07;;;;;;;;;;5030117;28;20189;-86
2023/01/27 13:36:48;;;;;;;2.83;2.63;;;;;;;;;;5049601;28;20181;-84
2023/01/27 13:39:18;;;;;;;2.90;2.70;;;;;;;;;;5025771;28;20186;-85
2023/01/27 13:41:50;;;;;;;2.97;2.73;;;;;;;;;;5031704;28;20610;-87
2023/01/27 13:44:21;;;;;;;3.83;3.00;;;;;;;;;;5028047;28;21036;-85
2023/01/27 13:46:49;;;;;;;2.40;2.20;;;;;;;;;;5029365;28;20641;-86
2023/01/27 13:49:28;;;;;;;2.80;2.60;;;;;;;;;;5028946;28;20201;-86
2023/01/27 13:51:54;;;;;;;3.10;2.80;;;;;;;;;;5030912;28;20228;-85
2023/01/27 13:54:22;;;;;;;2.40;2.20;;;;;;;;;;5029578;28;20225;-86
2023/01/27 13:56:54;;;;;;;2.67;2.47;;;;;;;;;;5033962;28;20170;-85
2023/01/27 13:59:29;;;;;;;2.77;2.57;;;;;;;;;;5032934;28;20243;-88
2023/01/27 14:02:01;;;;;;;2.47;2.27;;;;;;;;;;5028713;28;20645;-78
2023/01/27 14:04:46;;;;;;;2.60;2.40;;;;;;;;;;5031332;28;20594;-85
2023/01/27 14:07:24;;;;;;;2.60;2.40;;;;;;;;;;5027312;28;20193;-86
2023/01/27 14:10:00;;;;;;;2.80;2.60;;;;;;;;;;5026506;28;20257;-86
2023/01/27 14:12:39;;;;;;;2.37;2.17;;;;;;;;;;5031549;28;20787;-86
2023/01/27 14:15:24;;;;;;;2.40;2.20;;;;;;;;;;5043929;28;20220;-85
2023/01/27 14:18:00;;;;;;;2.63;2.43;;;;;;;;;;5043700;28;20533;-83
2023/01/27 14:20:30;;;;;;;2.53;2.33;;;;;;;;;;5027334;28;20631;-86
2023/01/27 14:22:59;;;;;;;2.40;2.20;;;;;;;;;;5029258;28;20241;-82
2023/01/27 14:25:49;;;;;;;2.50;2.30;;;;;;;;;;5027885;28;20213;-86
2023/01/27 14:28:34;;;;;;;2.40;2.20;;;;;;;;;;5032715;28;20228;-86
2023/01/27 14:31:06;;;;;;;2.77;2.57;;;;;;;;;;5027845;28;20178;-85
2023/01/27 14:33:42;;;;;;;2.60;2.37;;;;;;;;;;5033280;28;20641;-86
2023/01/27 14:36:27;;;;;;;2.53;2.30;;;;;;;;;;5028354;28;20198;-86
2023/01/27 14:38:56;;;;;;;2.40;2.20;;;;;;;;;;5026403;28;20173;-86
2023/01/27 14:41:40;;;;;;;2.40;2.20;;;;;;;;;;5028394;28;20178;-86
2023/01/27 14:44:18;;;;;;;2.73;2.53;;;;;;;;;;5025163;28;20244;-83
2023/01/27 14:47:03;;;;;;;2.50;2.30;;;;;;;;;;5032098;28;20194;-85
2023/01/27 14:49:48;;;;;;;2.83;2.43;;;;;;;;;;5033482;28;20227;-85
2023/01/27 14:52:20;;;;;;;2.60;2.40;;;;;;;;;;5048459;28;20225;-84
2023/01/27 14:55:04;;;;;;;2.40;2.20;;;;;;;;;;5023970;28;20209;-86
2023/01/27 14:57:31;;;;;;;2.53;2.33;;;;;;;;;;5028119;28;20330;-84
2023/01/27 15:00:09;;;;;;;2.80;2.60;;;;;;;;;;5034046;28;20530;-82
2023/01/27 15:02:42;;;;;;;2.50;2.30;;;;;;;;;;5030304;28;20292;-84
2023/01/27 15:05:23;;;;;;;2.37;2.17;;;;;;;;;;5030616;28;20233;-84
2023/01/27 15:07:57;;;;;;;2.67;2.47;;;;;;;;;;5028142;28;20892;-83
2023/01/27 15:10:28;;;;;;;2.70;2.50;;;;;;;;;;5030249;28;20576;-81
2023/01/27 15:12:57;;;;;;;2.70;2.50;;;;;;;;;;5028429;28;20182;-83
2023/01/27 15:15:41;;;;;;;2.70;2.50;;;;;;;;;;5026922;28;20344;-83
2023/01/27 15:18:26;;;;;;;2.83;2.63;;;;;;;;;;5030584;28;20181;-82
2023/01/27 15:20:52;;;;;;;3.13;2.83;;;;;;;;;;5043104;28;20189;-83
2023/01/27 15:23:24;;;;;;;2.90;2.70;;;;;;;;;;5027682;28;20189;-82
2023/01/27 15:25:52;;;;;;;3.10;2.90;;;;;;;;;;5028817;28;20601;-79
2023/01/27 15:28:23;;;;;;;3.27;2.30;;;;;;;;;;5049461;28;20188;-87
2023/01/27 15:31:08;;;;;;;2.83;2.63;;;;;;;;;;5015956;28;20255;-87
2023/01/27 15:33:49;;;;;;;2.93;2.63;;;;;;;;;;5030487;28;20327;-86